createdAt,value
2022-11-12T00:01:17.392Z,100.00
2022-11-12T00:03:19.210Z,100.00
2022-11-12T00:05:20.953Z,100.00
2022-11-12T00:07:22.486Z,100.00
2022-11-12T00:09:23.873Z,100.00
2022-11-12T00:11:25.422Z,100.00
2022-11-12T00:13:28.398Z,100.00
2022-11-12T00:15:30.014Z,100.00
2022-11-12T00:17:31.559Z,100.00
2022-11-12T00:19:32.885Z,100.00
2022-11-12T00:21:34.467Z,100.00
2022-11-12T00:23:36.041Z,100.00
2022-11-12T00:25:37.767Z,100.00
2022-11-12T00:27:39.377Z,100.00
2022-11-12T00:29:42.395Z,100.00
2022-11-12T00:31:43.978Z,100.00
2022-11-12T00:33:45.333Z,100.00
2022-11-12T00:35:47.031Z,100.00
2022-11-12T00:37:53.567Z,100.00
2022-11-12T00:39:55.176Z,100.00
2022-11-12T00:41:57.057Z,100.00
2022-11-12T00:43:58.682Z,100.00
2022-11-12T00:46:01.699Z,100.00
2022-11-12T00:48:03.520Z,100.00
2022-11-12T00:50:06.526Z,100.00
2022-11-12T00:52:08.286Z,100.00
2022-11-12T00:54:10.028Z,100.00
2022-11-12T00:56:11.546Z,100.00
2022-11-12T00:58:12.900Z,100.00
2022-11-12T01:00:17.083Z,100.00
2022-11-12T01:02:20.170Z,100.00
2022-11-12T01:04:21.765Z,100.00
2022-11-12T01:06:23.909Z,100.00
2022-11-12T01:08:25.980Z,100.00
2022-11-12T01:10:27.903Z,100.00
2022-11-12T01:12:30.879Z,100.00
2022-11-12T01:14:32.448Z,100.00
2022-11-12T01:16:35.531Z,100.00
2022-11-12T01:18:38.616Z,100.00
2022-11-12T01:20:40.290Z,100.00
2022-11-12T01:22:41.873Z,100.00
2022-11-12T01:24:43.400Z,100.00
2022-11-12T01:26:44.738Z,100.00
2022-11-12T01:28:46.429Z,100.00
2022-11-12T01:30:47.999Z,100.00
2022-11-12T01:32:49.536Z,100.00
2022-11-12T01:34:52.241Z,100.00
2022-11-12T01:36:54.177Z,100.00
2022-11-12T01:38:56.080Z,100.00
2022-11-12T01:40:57.659Z,100.00
2022-11-12T01:42:59.028Z,100.00
2022-11-12T01:45:00.610Z,100.00
2022-11-12T01:47:06.685Z,100.00
2022-11-12T01:49:14.028Z,100.00
2022-11-12T01:51:18.432Z,100.00
2022-11-12T01:53:21.559Z,100.00
2022-11-12T01:55:28.282Z,100.00
2022-11-12T01:57:35.277Z,100.00
2022-11-12T01:59:43.788Z,100.00
2022-11-12T02:01:45.428Z,100.00
2022-11-12T02:03:47.047Z,100.00
2022-11-12T02:05:57.443Z,100.00
2022-11-12T02:08:01.873Z,100.00
2022-11-12T02:10:05.551Z,100.00
2022-11-12T02:12:07.540Z,100.00
2022-11-12T02:14:09.177Z,100.00
2022-11-12T02:16:11.037Z,100.00
2022-11-12T02:18:12.627Z,100.00
2022-11-12T02:20:14.671Z,100.00
2022-11-12T02:22:17.695Z,100.00
2022-11-12T02:24:32.622Z,100.00
2022-11-12T02:26:36.965Z,100.00
2022-11-12T02:28:38.601Z,100.00
2022-11-12T02:30:44.835Z,100.00
2022-11-12T02:32:46.412Z,100.00
2022-11-12T02:34:47.778Z,100.00
2022-11-12T02:36:49.467Z,100.00
2022-11-12T02:38:52.514Z,100.00
2022-11-12T02:40:54.115Z,100.00
2022-11-12T02:42:55.738Z,100.00
2022-11-12T02:44:57.288Z,100.00
2022-11-12T02:46:58.640Z,100.00
2022-11-12T02:49:00.202Z,100.00
2022-11-12T02:51:01.785Z,100.00
2022-11-12T02:53:03.630Z,100.00
2022-11-12T02:55:08.776Z,100.00
2022-11-12T02:57:10.692Z,100.00
2022-11-12T02:59:12.274Z,100.00
2022-11-12T03:01:13.907Z,100.00
2022-11-12T03:03:15.533Z,100.00
2022-11-12T03:05:17.298Z,100.00
2022-11-12T03:07:18.894Z,100.00
2022-11-12T03:09:20.459Z,100.00
2022-11-12T03:11:23.186Z,100.00
2022-11-12T03:13:24.844Z,100.00
2022-11-12T03:15:27.577Z,100.00
2022-11-12T03:17:29.164Z,100.00
2022-11-12T03:19:30.871Z,100.00
2022-11-12T03:21:32.419Z,100.00
2022-11-12T03:23:33.752Z,100.00
2022-11-12T03:25:36.117Z,100.00
2022-11-12T03:27:39.091Z,100.00
2022-11-12T03:29:40.702Z,100.00
2022-11-12T03:31:42.415Z,100.00
2022-11-12T03:33:44.100Z,100.00
2022-11-12T03:35:45.672Z,100.00
2022-11-12T03:37:47.143Z,100.00
2022-11-12T03:39:48.711Z,100.00
2022-11-12T03:41:50.074Z,100.00
2022-11-12T03:43:53.033Z,100.00
2022-11-12T03:45:54.918Z,100.00
2022-11-12T03:47:58.025Z,100.00
2022-11-12T03:49:59.636Z,100.00
2022-11-12T03:52:01.211Z,100.00
2022-11-12T03:54:02.602Z,100.00
2022-11-12T03:56:04.693Z,100.00
2022-11-12T03:58:06.410Z,100.00
2022-11-12T04:00:11.634Z,100.00
2022-11-12T04:02:13.240Z,100.00
2022-11-12T04:04:14.800Z,100.00
2022-11-12T04:06:16.158Z,100.00
2022-11-12T04:08:19.752Z,100.00
2022-11-12T04:10:21.288Z,100.00
2022-11-12T04:12:22.640Z,100.00
2022-11-12T04:14:24.226Z,100.00
2022-11-12T04:16:26.956Z,100.00
2022-11-12T04:18:28.703Z,100.00
2022-11-12T04:20:30.479Z,100.00
2022-11-12T04:22:32.027Z,100.00
2022-11-12T04:24:34.053Z,100.00
2022-11-12T04:26:35.725Z,100.00
2022-11-12T04:28:37.280Z,100.00
2022-11-12T04:30:38.635Z,100.00
2022-11-12T04:32:48.628Z,100.00
2022-11-12T04:34:50.221Z,100.00
2022-11-12T04:36:51.845Z,100.00
2022-11-12T04:38:53.235Z,100.00
2022-11-12T04:40:54.796Z,100.00
2022-11-12T04:42:56.183Z,100.00
2022-11-12T04:44:57.862Z,100.00
2022-11-12T04:46:59.441Z,100.00
2022-11-12T04:49:02.156Z,100.00
2022-11-12T04:51:05.747Z,100.00
2022-11-12T04:53:07.305Z,100.00
2022-11-12T04:55:09.191Z,100.00
2022-11-12T04:57:10.764Z,100.00
2022-11-12T04:59:12.144Z,100.00
2022-11-12T05:01:13.741Z,100.00
2022-11-12T05:03:16.140Z,100.00
2022-11-12T05:05:19.076Z,100.00
2022-11-12T05:07:20.656Z,100.00
2022-11-12T05:09:24.272Z,100.00
2022-11-12T05:11:25.812Z,100.00
2022-11-12T05:13:27.175Z,100.00
2022-11-12T05:15:28.740Z,100.00
2022-11-12T05:17:30.157Z,100.00
2022-11-12T05:19:31.753Z,100.00
2022-11-12T05:21:37.965Z,100.00
2022-11-12T05:23:42.213Z,100.00
2022-11-12T05:25:43.540Z,100.00
2022-11-12T05:27:45.121Z,100.00
2022-11-12T05:29:46.625Z,100.00
2022-11-12T05:31:48.184Z,100.00
2022-11-12T05:33:49.639Z,100.00
2022-11-12T05:35:51.201Z,100.00
2022-11-12T05:37:53.937Z,100.00
2022-11-12T05:39:55.522Z,100.00
2022-11-12T05:42:13.936Z,100.00
2022-11-12T05:44:15.968Z,100.00
2022-11-12T05:46:17.459Z,100.00
2022-11-12T05:48:24.010Z,100.00
2022-11-12T05:50:28.228Z,100.00
2022-11-12T05:52:36.728Z,100.00
2022-11-12T05:54:39.694Z,100.00
2022-11-12T05:56:41.376Z,100.00
2022-11-12T05:58:43.044Z,100.00
2022-11-12T06:00:44.623Z,100.00
2022-11-12T06:02:46.038Z,100.00
2022-11-12T06:04:47.645Z,100.00
2022-11-12T06:06:49.078Z,100.00
2022-11-12T06:08:50.725Z,100.00
2022-11-12T06:10:54.825Z,100.00
2022-11-12T06:12:56.432Z,100.00
2022-11-12T06:14:58.000Z,100.00
2022-11-12T06:16:59.404Z,100.00
2022-11-12T06:19:00.958Z,100.00
2022-11-12T06:21:03.164Z,100.00
2022-11-12T06:23:04.832Z,100.00
2022-11-12T06:25:06.907Z,100.00
2022-11-12T06:27:10.030Z,100.00
2022-11-12T06:29:11.856Z,100.00
2022-11-12T06:31:14.201Z,100.00
2022-11-12T06:33:15.768Z,100.00
2022-11-12T06:35:18.295Z,100.00
2022-11-12T06:37:20.029Z,100.00
2022-11-12T06:39:21.660Z,100.00
2022-11-12T06:41:23.248Z,100.00
2022-11-12T06:43:28.945Z,100.00
2022-11-12T06:45:30.606Z,100.00
2022-11-12T06:47:32.413Z,100.00
2022-11-12T06:49:33.998Z,100.00
2022-11-12T06:51:35.331Z,100.00
2022-11-12T06:53:36.969Z,100.00
2022-11-12T06:55:38.551Z,100.00
2022-11-12T06:57:39.935Z,100.00
2022-11-12T06:59:42.910Z,100.00
2022-11-12T07:01:44.652Z,100.00
2022-11-12T07:03:46.250Z,100.00
2022-11-12T07:05:47.892Z,100.00
2022-11-12T07:07:49.690Z,100.00
2022-11-12T07:09:51.659Z,100.00
2022-11-12T07:11:53.234Z,100.00
2022-11-12T07:13:54.737Z,100.00
2022-11-12T07:15:58.863Z,100.00
2022-11-12T07:18:00.683Z,100.00
2022-11-12T07:20:04.120Z,100.00
2022-11-12T07:22:05.934Z,100.00
2022-11-12T07:24:08.462Z,100.00
2022-11-12T07:26:14.144Z,100.00
2022-11-12T07:28:15.855Z,100.00
2022-11-12T07:30:17.751Z,100.00
2022-11-12T07:32:20.881Z,100.00
2022-11-12T07:34:22.619Z,100.00
2022-11-12T07:36:27.406Z,100.00
2022-11-12T07:38:32.211Z,100.00
2022-11-12T07:40:33.933Z,100.00
2022-11-12T07:42:35.939Z,100.00
2022-11-12T07:44:37.624Z,100.00
2022-11-12T07:46:39.377Z,100.00
2022-11-12T07:48:44.034Z,100.00
2022-11-12T07:50:45.747Z,100.00
2022-11-12T07:52:47.351Z,100.00
2022-11-12T07:54:49.519Z,100.00
2022-11-12T07:56:51.224Z,100.00
2022-11-12T07:58:53.004Z,100.00
2022-11-12T08:00:54.723Z,100.00
2022-11-12T08:02:59.739Z,100.00
2022-11-12T08:05:08.584Z,100.00
2022-11-12T08:07:18.530Z,100.00
2022-11-12T08:09:20.154Z,100.00
2022-11-12T08:11:21.529Z,100.00
2022-11-12T08:13:23.659Z,100.00
2022-11-12T08:15:25.643Z,100.00
2022-11-12T08:17:27.394Z,100.00
2022-11-12T08:19:28.954Z,100.00
2022-11-12T08:21:31.675Z,100.00
2022-11-12T08:23:33.346Z,100.00
2022-11-12T08:25:40.610Z,100.00
2022-11-12T08:27:42.187Z,100.00
2022-11-12T08:29:43.777Z,100.00
2022-11-12T08:31:48.401Z,100.00
2022-11-12T08:33:50.457Z,100.00
2022-11-12T08:35:58.124Z,100.00
2022-11-12T08:38:08.347Z,100.00
2022-11-12T08:40:11.378Z,100.00
2022-11-12T08:42:13.117Z,100.00
2022-11-12T08:44:14.686Z,100.00
2022-11-12T08:46:21.791Z,100.00
2022-11-12T08:48:23.401Z,100.00
2022-11-12T08:50:25.194Z,100.00
2022-11-12T08:52:26.801Z,99.79
2022-11-12T08:54:29.744Z,98.78
2022-11-12T08:56:31.320Z,99.08
2022-11-12T08:58:32.916Z,100.00
2022-11-12T09:00:37.183Z,99.03
2022-11-12T09:02:39.330Z,97.64
2022-11-12T09:04:40.843Z,97.40
2022-11-12T09:06:42.416Z,98.64
2022-11-12T09:08:44.053Z,96.73
2022-11-12T09:10:47.360Z,94.88
2022-11-12T09:12:51.023Z,93.13
2022-11-12T09:14:56.084Z,91.82
2022-11-12T09:16:57.825Z,92.73
2022-11-12T09:18:59.359Z,91.37
2022-11-12T09:21:03.606Z,91.60
2022-11-12T09:23:06.903Z,91.66
2022-11-12T09:25:09.022Z,91.28
2022-11-12T09:27:11.949Z,92.65
2022-11-12T09:29:13.505Z,91.55
2022-11-12T09:31:15.011Z,90.28
2022-11-12T09:33:18.013Z,90.79
2022-11-12T09:35:19.559Z,91.13
2022-11-12T09:37:21.171Z,90.89
2022-11-12T09:39:22.819Z,91.23
2022-11-12T09:41:29.695Z,91.12
2022-11-12T09:43:37.228Z,89.63
2022-11-12T09:45:39.856Z,89.57
2022-11-12T09:47:46.984Z,90.57
2022-11-12T09:49:55.249Z,92.90
2022-11-12T09:52:03.036Z,91.21
2022-11-12T09:54:06.990Z,90.38
2022-11-12T09:56:13.424Z,90.38
2022-11-12T09:58:17.001Z,90.30
2022-11-12T10:00:21.631Z,90.55
2022-11-12T10:02:31.888Z,90.17
2022-11-12T10:04:46.248Z,89.31
2022-11-12T10:06:57.070Z,89.07
2022-11-12T10:09:05.023Z,88.85
2022-11-12T10:11:32.014Z,89.05
2022-11-12T10:13:45.955Z,88.71
2022-11-12T10:16:00.876Z,90.25
2022-11-12T10:18:09.124Z,87.94
2022-11-12T10:20:18.258Z,88.21
2022-11-12T10:22:33.086Z,86.78
2022-11-12T10:24:36.541Z,87.45
2022-11-12T10:26:39.360Z,85.59
2022-11-12T10:28:46.567Z,85.94
2022-11-12T10:30:48.140Z,86.25
2022-11-12T10:32:52.971Z,86.39
2022-11-12T10:34:54.519Z,85.48
2022-11-12T10:37:01.375Z,86.23
2022-11-12T10:39:03.184Z,83.45
2022-11-12T10:41:19.179Z,83.03
2022-11-12T10:43:22.842Z,80.32
2022-11-12T10:45:24.624Z,80.60
2022-11-12T10:47:30.138Z,81.04
2022-11-12T10:49:33.200Z,81.39
2022-11-12T10:51:37.227Z,81.56
2022-11-12T10:53:40.103Z,80.78
2022-11-12T10:55:59.150Z,82.48
2022-11-12T10:58:15.191Z,83.32
2022-11-12T11:00:21.058Z,83.73
2022-11-12T11:02:22.747Z,84.37
2022-11-12T11:04:30.560Z,84.33
2022-11-12T11:06:33.441Z,82.85
2022-11-12T11:08:39.132Z,85.46
2022-11-12T11:10:41.056Z,83.11
2022-11-12T11:12:42.599Z,83.84
2022-11-12T11:14:44.196Z,84.20
2022-11-12T11:16:49.994Z,82.73
2022-11-12T11:18:59.914Z,83.09
2022-11-12T11:21:31.923Z,83.90
2022-11-12T11:23:40.525Z,81.51
2022-11-12T11:25:43.229Z,81.14
2022-11-12T11:27:56.997Z,81.44
2022-11-12T11:30:07.905Z,81.78
2022-11-12T11:32:18.907Z,83.07
2022-11-12T11:34:32.611Z,81.92
2022-11-12T11:36:44.633Z,81.95
2022-11-12T11:38:57.395Z,81.80
2022-11-12T11:41:10.960Z,84.09
2022-11-12T11:43:40.074Z,84.74
2022-11-12T11:45:56.312Z,83.40
2022-11-12T11:48:05.715Z,83.27
2022-11-12T11:50:27.969Z,85.61
2022-11-12T11:52:49.071Z,84.70
2022-11-12T11:55:14.136Z,84.60
2022-11-12T11:57:21.399Z,85.64
2022-11-12T11:59:33.489Z,85.25
2022-11-12T12:01:49.964Z,84.15
2022-11-12T12:04:17.352Z,83.33
2022-11-12T12:06:23.845Z,83.01
2022-11-12T12:08:37.523Z,82.95
2022-11-12T12:11:07.636Z,85.92
2022-11-12T12:13:21.323Z,87.24
2022-11-12T12:15:56.012Z,87.88
2022-11-12T12:18:05.422Z,88.27
2022-11-12T12:20:19.733Z,86.98
2022-11-12T12:22:29.646Z,86.33
2022-11-12T12:24:37.473Z,84.98
2022-11-12T12:26:45.818Z,86.60
2022-11-12T12:28:53.830Z,86.90
2022-11-12T12:31:01.006Z,85.69
2022-11-12T12:33:17.201Z,86.61
2022-11-12T12:35:25.023Z,87.12
2022-11-12T12:37:35.475Z,87.57
2022-11-12T12:39:48.174Z,86.87
2022-11-12T12:41:58.380Z,88.46
2022-11-12T12:44:04.015Z,87.08
2022-11-12T12:46:06.587Z,87.14
2022-11-12T12:48:14.605Z,86.60
2022-11-12T12:50:20.437Z,87.01
2022-11-12T12:52:22.097Z,85.34
2022-11-12T12:54:55.810Z,84.08
2022-11-12T12:56:58.989Z,83.83
2022-11-12T12:59:01.386Z,84.54
2022-11-12T13:01:05.910Z,85.21
2022-11-12T13:03:11.222Z,84.11
2022-11-12T13:05:24.508Z,83.65
2022-11-12T13:07:41.852Z,84.38
2022-11-12T13:09:43.560Z,84.76
2022-11-12T13:11:50.683Z,85.34
2022-11-12T13:13:56.642Z,85.05
2022-11-12T13:15:59.844Z,86.15
2022-11-12T13:18:01.425Z,86.94
2022-11-12T13:20:35.437Z,87.80
2022-11-12T13:22:57.847Z,87.83
2022-11-12T13:25:04.377Z,88.83
2022-11-12T13:27:05.995Z,86.80
2022-11-12T13:29:24.764Z,86.98
2022-11-12T13:31:28.574Z,86.16
2022-11-12T13:33:33.504Z,87.08
2022-11-12T13:35:36.159Z,87.22
2022-11-12T13:37:43.762Z,87.48
2022-11-12T13:39:45.807Z,86.42
2022-11-12T13:41:56.491Z,87.35
2022-11-12T13:43:58.153Z,88.56
2022-11-12T13:46:32.713Z,88.18
2022-11-12T13:48:38.881Z,88.38
2022-11-12T13:50:41.563Z,90.27
2022-11-12T13:52:43.445Z,90.50
2022-11-12T13:54:45.130Z,90.26
2022-11-12T13:56:46.763Z,89.79
2022-11-12T13:58:48.386Z,89.19
2022-11-12T14:00:54.692Z,89.68
2022-11-12T14:03:01.132Z,89.95
2022-11-12T14:05:03.474Z,91.11
2022-11-12T14:07:25.563Z,91.34
2022-11-12T14:09:50.089Z,91.74
2022-11-12T14:12:05.938Z,92.14
2022-11-12T14:14:19.156Z,93.27
2022-11-12T14:16:41.454Z,93.48
2022-11-12T14:18:59.802Z,94.89
2022-11-12T14:21:06.036Z,93.90
2022-11-12T14:23:12.228Z,93.72
2022-11-12T14:25:17.933Z,94.31
2022-11-12T14:27:34.742Z,95.63
2022-11-12T14:29:41.089Z,95.10
2022-11-12T14:31:45.587Z,95.25
2022-11-12T14:33:48.548Z,96.31
2022-11-12T14:35:52.040Z,95.82
2022-11-12T14:37:55.492Z,95.72
2022-11-12T14:39:57.078Z,97.44
2022-11-12T14:41:59.901Z,97.30
2022-11-12T14:44:13.029Z,98.04
2022-11-12T14:46:24.355Z,97.90
2022-11-12T14:48:26.390Z,98.66
2022-11-12T14:50:37.399Z,98.89
2022-11-12T14:52:45.960Z,99.04
2022-11-12T14:54:50.226Z,99.74
2022-11-12T14:56:52.674Z,100.00
2022-11-12T14:58:55.940Z,100.00
2022-11-12T15:00:57.563Z,100.00
2022-11-12T15:03:00.813Z,100.00
2022-11-12T15:05:12.404Z,100.00
2022-11-12T15:07:27.165Z,100.00
2022-11-12T15:09:36.311Z,100.00
2022-11-12T15:11:44.640Z,100.00
2022-11-12T15:13:47.896Z,100.00
2022-11-12T15:15:52.063Z,100.00
2022-11-12T15:17:57.567Z,100.00
2022-11-12T15:20:04.864Z,100.00
2022-11-12T15:22:06.513Z,100.00
2022-11-12T15:24:21.726Z,100.00
2022-11-12T15:26:26.452Z,100.00
2022-11-12T15:28:28.194Z,100.00
2022-11-12T15:30:31.032Z,100.00
2022-11-12T15:32:34.191Z,100.00
2022-11-12T15:34:46.641Z,100.00
2022-11-12T15:36:48.219Z,100.00
2022-11-12T15:38:52.417Z,100.00
2022-11-12T15:40:57.730Z,100.00
2022-11-12T15:43:01.246Z,100.00
2022-11-12T15:45:09.310Z,100.00
2022-11-12T15:47:18.841Z,100.00
2022-11-12T15:49:20.423Z,100.00
2022-11-12T15:51:21.967Z,100.00
2022-11-12T15:53:23.660Z,100.00
2022-11-12T15:55:25.275Z,100.00
2022-11-12T15:57:32.121Z,100.00
2022-11-12T15:59:34.137Z,100.00
2022-11-12T16:01:35.655Z,100.00
2022-11-12T16:03:37.188Z,100.00
2022-11-12T16:05:38.892Z,100.00
2022-11-12T16:07:41.890Z,100.00
2022-11-12T16:09:43.596Z,100.00
2022-11-12T16:11:45.765Z,100.00
2022-11-12T16:13:48.645Z,100.00
2022-11-12T16:15:51.322Z,100.00
2022-11-12T16:17:53.936Z,100.00
2022-11-12T16:19:55.502Z,100.00
2022-11-12T16:21:57.125Z,100.00
2022-11-12T16:23:58.744Z,100.00
2022-11-12T16:26:02.265Z,100.00
2022-11-12T16:28:04.570Z,100.00
2022-11-12T16:30:14.647Z,100.00
2022-11-12T16:32:16.219Z,100.00
2022-11-12T16:34:17.797Z,100.00
2022-11-12T16:36:19.443Z,100.00
2022-11-12T16:38:21.065Z,100.00
2022-11-12T16:40:24.653Z,100.00
2022-11-12T16:42:26.324Z,100.00
2022-11-12T16:44:27.994Z,100.00
2022-11-12T16:46:36.045Z,100.00
2022-11-12T16:48:37.685Z,100.00
2022-11-12T16:50:39.368Z,100.00
2022-11-12T16:52:40.898Z,100.00
2022-11-12T16:54:42.432Z,100.00
2022-11-12T16:56:45.290Z,100.00
2022-11-12T16:58:47.443Z,100.00
2022-11-12T17:00:49.271Z,100.00
2022-11-12T17:02:53.578Z,100.00
2022-11-12T17:04:55.238Z,100.00
2022-11-12T17:06:56.904Z,100.00
2022-11-12T17:08:58.573Z,100.00
2022-11-12T17:11:06.330Z,100.00
2022-11-12T17:13:08.885Z,100.00
2022-11-12T17:15:10.538Z,100.00
2022-11-12T17:17:12.079Z,100.00
2022-11-12T17:19:14.998Z,100.00
2022-11-12T17:21:18.088Z,100.00
2022-11-12T17:23:19.623Z,100.00
2022-11-12T17:25:21.245Z,100.00
2022-11-12T17:27:22.774Z,100.00
2022-11-12T17:29:24.320Z,100.00
2022-11-12T17:31:26.331Z,100.00
2022-11-12T17:33:28.144Z,100.00
2022-11-12T17:35:33.002Z,100.00
2022-11-12T17:37:34.588Z,100.00
2022-11-12T17:39:36.375Z,100.00
2022-11-12T17:41:38.199Z,100.00
2022-11-12T17:43:40.679Z,100.00
2022-11-12T17:45:49.259Z,100.00
2022-11-12T17:47:50.819Z,100.00
2022-11-12T17:49:52.362Z,100.00
2022-11-12T17:51:55.251Z,100.00
2022-11-12T17:53:56.758Z,100.00
2022-11-12T17:55:59.006Z,100.00
2022-11-12T17:58:00.629Z,100.00
2022-11-12T18:00:02.364Z,100.00
2022-11-12T18:02:03.982Z,100.00
2022-11-12T18:04:05.595Z,100.00
2022-11-12T18:06:09.958Z,100.00
2022-11-12T18:08:13.633Z,100.00
2022-11-12T18:10:19.401Z,100.00
2022-11-12T18:12:21.281Z,100.00
2022-11-12T18:14:22.939Z,100.00
2022-11-12T18:16:26.260Z,100.00
2022-11-12T18:18:27.837Z,100.00
2022-11-12T18:20:29.430Z,100.00
2022-11-12T18:22:31.238Z,100.00
2022-11-12T18:24:34.140Z,100.00
2022-11-12T18:26:35.784Z,100.00
2022-11-12T18:28:37.349Z,100.00
2022-11-12T18:30:39.014Z,100.00
2022-11-12T18:32:40.699Z,100.00
2022-11-12T18:34:42.293Z,100.00
2022-11-12T18:36:43.899Z,100.00
2022-11-12T18:38:45.815Z,100.00
2022-11-12T18:40:48.775Z,100.00
2022-11-12T18:42:50.332Z,100.00
2022-11-12T18:44:51.962Z,100.00
2022-11-12T18:46:53.509Z,100.00
2022-11-12T18:48:55.105Z,100.00
2022-11-12T18:50:58.007Z,100.00
2022-11-12T18:52:59.611Z,100.00
2022-11-12T18:55:01.169Z,100.00
2022-11-12T18:57:04.343Z,100.00
2022-11-12T18:59:06.411Z,100.00
2022-11-12T19:01:10.305Z,100.00
2022-11-12T19:03:11.967Z,100.00
2022-11-12T19:05:13.656Z,100.00
2022-11-12T19:07:15.231Z,100.00
2022-11-12T19:09:17.073Z,100.00
2022-11-12T19:11:19.448Z,100.00
2022-11-12T19:13:22.347Z,100.00
2022-11-12T19:15:26.760Z,100.00
2022-11-12T19:17:31.201Z,100.00
2022-11-12T19:19:32.851Z,100.00
2022-11-12T19:21:34.222Z,100.00
2022-11-12T19:23:35.930Z,100.00
2022-11-12T19:25:37.505Z,100.00
2022-11-12T19:27:39.099Z,100.00
2022-11-12T19:29:42.279Z,100.00
2022-11-12T19:31:43.823Z,100.00
2022-11-12T19:33:46.285Z,100.00
2022-11-12T19:35:47.860Z,100.00
2022-11-12T19:37:49.390Z,100.00
2022-11-12T19:39:50.918Z,100.00
2022-11-12T19:41:52.568Z,100.00
2022-11-12T19:43:54.570Z,100.00
2022-11-12T19:45:57.518Z,100.00
2022-11-12T19:47:59.072Z,100.00
2022-11-12T19:50:00.613Z,100.00
2022-11-12T19:52:02.249Z,100.00
2022-11-12T19:54:04.328Z,100.00
2022-11-12T19:56:07.248Z,100.00
2022-11-12T19:58:09.007Z,100.00
2022-11-12T20:00:12.170Z,100.00
2022-11-12T20:02:15.069Z,100.00
2022-11-12T20:04:20.180Z,100.00
2022-11-12T20:06:26.176Z,100.00
2022-11-12T20:08:28.078Z,100.00
2022-11-12T20:10:30.139Z,100.00
2022-11-12T20:12:31.674Z,100.00
2022-11-12T20:14:33.239Z,100.00
2022-11-12T20:16:34.844Z,100.00
2022-11-12T20:18:37.760Z,100.00
2022-11-12T20:20:39.317Z,100.00
2022-11-12T20:22:40.962Z,100.00
2022-11-12T20:24:42.646Z,100.00
2022-11-12T20:26:44.310Z,100.00
2022-11-12T20:28:46.017Z,100.00
2022-11-12T20:30:47.578Z,100.00
2022-11-12T20:32:49.158Z,100.00
2022-11-12T20:34:52.245Z,100.00
2022-11-12T20:36:54.336Z,100.00
2022-11-12T20:38:56.088Z,100.00
2022-11-12T20:40:59.376Z,100.00
2022-11-12T20:43:01.545Z,100.00
2022-11-12T20:45:03.471Z,100.00
2022-11-12T20:47:05.465Z,100.00
2022-11-12T20:49:07.145Z,100.00
2022-11-12T20:51:28.128Z,100.00
2022-11-12T20:53:31.383Z,100.00
2022-11-12T20:55:33.069Z,100.00
2022-11-12T20:57:34.885Z,100.00
2022-11-12T20:59:36.665Z,100.00
2022-11-12T21:01:38.784Z,100.00
2022-11-12T21:03:41.595Z,100.00
2022-11-12T21:05:43.485Z,100.00
2022-11-12T21:07:46.471Z,100.00
2022-11-12T21:09:48.113Z,100.00
2022-11-12T21:11:50.066Z,100.00
2022-11-12T21:13:51.611Z,100.00
2022-11-12T21:15:54.140Z,100.00
2022-11-12T21:17:55.746Z,100.00
2022-11-12T21:19:57.378Z,100.00
2022-11-12T21:21:59.070Z,100.00
2022-11-12T21:24:05.057Z,100.00
2022-11-12T21:26:10.001Z,100.00
2022-11-12T21:28:11.558Z,100.00
2022-11-12T21:30:13.135Z,100.00
2022-11-12T21:32:14.714Z,100.00
2022-11-12T21:34:16.257Z,100.00
2022-11-12T21:36:18.348Z,100.00
2022-11-12T21:38:20.014Z,100.00
2022-11-12T21:40:25.881Z,100.00
2022-11-12T21:42:28.081Z,100.00
2022-11-12T21:44:29.650Z,100.00
2022-11-12T21:46:32.232Z,100.00
2022-11-12T21:48:34.513Z,100.00
2022-11-12T21:50:36.258Z,100.00
2022-11-12T21:52:37.872Z,100.00
2022-11-12T21:54:42.813Z,100.00
2022-11-12T21:56:45.799Z,100.00
2022-11-12T21:58:47.470Z,100.00
2022-11-12T22:00:49.129Z,100.00
2022-11-12T22:02:54.439Z,100.00
2022-11-12T22:04:56.024Z,100.00
2022-11-12T22:06:57.760Z,100.00
2022-11-12T22:08:59.503Z,100.00
2022-11-12T22:11:01.996Z,100.00
2022-11-12T22:13:25.954Z,100.00
2022-11-12T22:15:26.834Z,100.00
2022-11-12T22:17:28.649Z,100.00
2022-11-12T22:19:30.245Z,100.00
2022-11-12T22:21:39.503Z,100.00
2022-11-12T22:23:41.848Z,100.00
2022-11-12T22:25:43.859Z,100.00
2022-11-12T22:27:45.617Z,100.00
2022-11-12T22:29:48.528Z,100.00
2022-11-12T22:31:50.132Z,100.00
2022-11-12T22:33:51.687Z,100.00
2022-11-12T22:35:53.425Z,100.00
2022-11-12T22:37:55.039Z,100.00
2022-11-12T22:39:56.636Z,100.00
2022-11-12T22:41:58.337Z,100.00
2022-11-12T22:44:01.626Z,100.00
2022-11-12T22:46:06.151Z,100.00
2022-11-12T22:48:07.718Z,100.00
2022-11-12T22:50:10.150Z,100.00
2022-11-12T22:52:11.785Z,100.00
2022-11-12T22:54:13.384Z,100.00
2022-11-12T22:56:16.301Z,100.00
2022-11-12T22:58:17.867Z,100.00
2022-11-12T23:00:28.739Z,100.00
2022-11-12T23:02:31.764Z,100.00
2022-11-12T23:04:33.503Z,100.00
2022-11-12T23:06:35.263Z,100.00
2022-11-12T23:08:37.292Z,100.00
2022-11-12T23:10:44.475Z,100.00
2022-11-12T23:12:47.225Z,100.00
2022-11-12T23:14:48.808Z,100.00
2022-11-12T23:16:50.369Z,100.00
2022-11-12T23:18:53.541Z,100.00
2022-11-12T23:21:01.664Z,100.00
2022-11-12T23:23:03.505Z,100.00
2022-11-12T23:25:06.359Z,100.00
2022-11-12T23:27:07.933Z,100.00
2022-11-12T23:29:10.867Z,100.00
2022-11-12T23:31:14.290Z,100.00
2022-11-12T23:33:15.919Z,100.00
2022-11-12T23:35:18.899Z,100.00
2022-11-12T23:37:20.428Z,100.00
2022-11-12T23:39:22.029Z,100.00
2022-11-12T23:41:25.563Z,100.00
2022-11-12T23:43:27.124Z,100.00
2022-11-12T23:45:28.708Z,100.00
2022-11-12T23:47:30.260Z,100.00
2022-11-12T23:49:31.843Z,100.00
2022-11-12T23:51:34.826Z,100.00
2022-11-12T23:53:37.274Z,100.00
2022-11-12T23:55:40.339Z,100.00
2022-11-12T23:57:42.134Z,100.00
2022-11-12T23:59:43.814Z,100.00
